createdAt,value
2022-09-12T00:01:23.480Z,17.44
2022-09-12T00:03:58.361Z,17.43
2022-09-12T00:06:36.933Z,17.38
2022-09-12T00:09:10.778Z,17.31
2022-09-12T00:11:42.649Z,17.20
2022-09-12T00:14:11.528Z,17.22
2022-09-12T00:16:39.423Z,17.12
2022-09-12T00:19:06.821Z,16.96
2022-09-12T00:21:35.205Z,16.89
2022-09-12T00:24:01.806Z,16.79
2022-09-12T00:26:28.520Z,16.88
2022-09-12T00:28:55.183Z,16.87
2022-09-12T00:31:26.539Z,16.63
2022-09-12T00:33:55.711Z,16.58
2022-09-12T00:36:24.242Z,16.27
2022-09-12T00:38:51.261Z,16.31
2022-09-12T00:41:21.832Z,16.28
2022-09-12T00:43:49.354Z,16.34
2022-09-12T00:46:21.864Z,16.36
2022-09-12T00:48:54.251Z,16.20
2022-09-12T00:51:20.912Z,16.33
2022-09-12T00:53:49.936Z,16.44
2022-09-12T00:56:19.125Z,16.44
2022-09-12T00:58:57.880Z,16.57
2022-09-12T01:01:25.956Z,16.62
2022-09-12T01:03:54.786Z,16.52
2022-09-12T01:06:33.058Z,16.60
2022-09-12T01:09:03.404Z,16.49
2022-09-12T01:11:32.271Z,16.35
2022-09-12T01:13:59.853Z,16.21
2022-09-12T01:16:26.441Z,16.23
2022-09-12T01:19:25.558Z,16.29
2022-09-12T01:22:29.735Z,16.37
2022-09-12T01:25:38.231Z,16.42
2022-09-12T01:28:31.913Z,16.34
2022-09-12T01:31:08.014Z,16.37
2022-09-12T01:33:47.759Z,16.31
2022-09-12T01:36:39.225Z,16.33
2022-09-12T01:39:27.126Z,16.28
2022-09-12T01:42:06.453Z,16.32
2022-09-12T01:45:04.398Z,16.21
2022-09-12T01:47:41.205Z,16.24
2022-09-12T01:50:18.957Z,16.14
2022-09-12T01:52:54.053Z,16.25
2022-09-12T01:55:44.169Z,16.26
2022-09-12T01:58:29.305Z,16.24
2022-09-12T02:01:15.039Z,16.25
2022-09-12T02:03:45.057Z,16.29
2022-09-12T02:06:41.754Z,16.28
2022-09-12T02:09:18.520Z,16.23
2022-09-12T02:11:47.266Z,16.17
2022-09-12T02:14:32.600Z,16.14
2022-09-12T02:17:06.030Z,16.17
2022-09-12T02:19:40.783Z,16.03
2022-09-12T02:22:14.781Z,16.09
2022-09-12T02:24:47.301Z,16.02
2022-09-12T02:27:23.755Z,16.02
2022-09-12T02:29:50.907Z,15.93
2022-09-12T02:32:38.209Z,15.86
2022-09-12T02:35:26.328Z,15.85
2022-09-12T02:38:14.838Z,15.74
2022-09-12T02:40:41.728Z,15.75
2022-09-12T02:43:08.231Z,15.81
2022-09-12T02:45:36.631Z,15.79
2022-09-12T02:48:10.456Z,15.76
2022-09-12T02:50:38.665Z,15.73
2022-09-12T02:53:08.247Z,15.80
2022-09-12T02:55:37.027Z,15.76
2022-09-12T02:58:06.949Z,15.82
2022-09-12T03:00:39.909Z,15.76
2022-09-12T03:03:43.547Z,15.62
2022-09-12T03:06:25.014Z,15.46
2022-09-12T03:09:01.418Z,15.52
2022-09-12T03:11:54.054Z,15.49
2022-09-12T03:15:01.769Z,15.45
2022-09-12T03:18:09.606Z,15.44
2022-09-12T03:20:53.972Z,15.43
2022-09-12T03:23:31.142Z,15.49
2022-09-12T03:26:04.473Z,15.49
2022-09-12T03:28:33.482Z,15.47
2022-09-12T03:31:00.218Z,15.55
2022-09-12T03:33:26.949Z,15.57
2022-09-12T03:35:55.247Z,15.56
2022-09-12T03:38:21.737Z,15.56
2022-09-12T03:40:52.686Z,15.50
2022-09-12T03:43:21.290Z,15.57
2022-09-12T03:45:52.399Z,15.59
2022-09-12T03:48:19.024Z,15.47
2022-09-12T03:50:45.700Z,15.52
2022-09-12T03:53:16.552Z,15.45
2022-09-12T03:55:43.946Z,15.44
2022-09-12T03:58:11.247Z,15.31
2022-09-12T04:00:39.608Z,15.40
2022-09-12T04:03:06.202Z,15.37
2022-09-12T04:05:33.124Z,15.35
2022-09-12T04:07:59.596Z,15.34
2022-09-12T04:10:26.151Z,15.38
2022-09-12T04:12:52.940Z,15.36
2022-09-12T04:15:19.406Z,15.39
2022-09-12T04:17:45.868Z,15.28
2022-09-12T04:20:12.676Z,15.23
2022-09-12T04:22:39.257Z,15.18
2022-09-12T04:25:06.279Z,15.07
2022-09-12T04:27:33.110Z,14.94
2022-09-12T04:30:01.164Z,14.94
2022-09-12T04:32:29.656Z,14.91
2022-09-12T04:34:56.601Z,14.94
2022-09-12T04:37:24.194Z,15.02
2022-09-12T04:39:51.780Z,15.08
2022-09-12T04:42:18.502Z,15.16
2022-09-12T04:44:44.979Z,15.22
2022-09-12T04:47:11.475Z,15.20
2022-09-12T04:49:38.170Z,15.17
2022-09-12T04:52:04.639Z,15.21
2022-09-12T04:54:31.205Z,15.27
2022-09-12T04:56:57.874Z,15.16
2022-09-12T04:59:24.392Z,15.08
2022-09-12T05:01:51.315Z,15.00
2022-09-12T05:04:18.639Z,14.99
2022-09-12T05:06:47.623Z,15.13
2022-09-12T05:09:14.723Z,15.07
2022-09-12T05:14:32.593Z,15.17
2022-09-12T05:17:01.652Z,15.16
2022-09-12T05:19:30.126Z,15.16
2022-09-12T05:21:56.852Z,15.11
2022-09-12T05:24:24.768Z,15.10
2022-09-12T05:26:51.634Z,15.11
2022-09-12T05:29:18.300Z,15.11
2022-09-12T05:31:45.245Z,15.11
2022-09-12T05:34:12.696Z,15.14
2022-09-12T05:36:39.179Z,15.16
2022-09-12T05:39:05.966Z,15.16
2022-09-12T05:41:33.810Z,15.13
2022-09-12T05:44:02.614Z,15.21
2022-09-12T05:46:37.734Z,15.21
2022-09-12T05:49:10.021Z,15.33
2022-09-12T05:51:39.398Z,15.27
2022-09-12T05:54:07.692Z,15.18
2022-09-12T05:56:39.396Z,15.11
2022-09-12T05:59:26.199Z,15.29
2022-09-12T06:01:54.089Z,15.22
2022-09-12T06:04:20.648Z,15.20
2022-09-12T06:06:47.241Z,15.23
2022-09-12T06:09:16.154Z,15.15
2022-09-12T06:11:43.249Z,14.80
2022-09-12T06:14:12.597Z,15.12
2022-09-12T06:16:39.432Z,15.16
2022-09-12T06:19:15.293Z,15.16
2022-09-12T06:21:42.082Z,15.12
2022-09-12T06:24:08.587Z,15.05
2022-09-12T06:26:35.478Z,15.14
2022-09-12T06:29:02.937Z,15.18
2022-09-12T06:31:35.031Z,15.15
2022-09-12T06:34:04.604Z,15.06
2022-09-12T06:36:37.998Z,15.13
2022-09-12T06:39:16.901Z,15.22
2022-09-12T06:41:44.661Z,15.24
2022-09-12T06:44:14.921Z,15.28
2022-09-12T06:46:41.829Z,15.28
2022-09-12T06:49:08.606Z,15.25
2022-09-12T06:51:36.259Z,15.43
2022-09-12T06:54:03.718Z,15.50
2022-09-12T06:56:30.215Z,15.58
2022-09-12T06:58:58.321Z,15.73
2022-09-12T07:01:27.740Z,15.71
2022-09-12T07:03:56.891Z,15.72
2022-09-12T07:06:26.083Z,15.79
2022-09-12T07:08:52.534Z,15.81
2022-09-12T07:11:21.898Z,15.88
2022-09-12T07:13:50.812Z,16.01
2022-09-12T07:16:19.943Z,15.98
2022-09-12T07:18:51.712Z,16.18
2022-09-12T07:21:18.144Z,16.18
2022-09-12T07:23:45.595Z,16.31
2022-09-12T07:26:13.412Z,16.47
2022-09-12T07:28:40.317Z,16.55
2022-09-12T07:31:10.864Z,16.77
2022-09-12T07:33:37.727Z,16.98
2022-09-12T07:36:06.776Z,17.12
2022-09-12T07:38:33.382Z,17.09
2022-09-12T07:41:01.145Z,16.91
2022-09-12T07:43:27.985Z,17.06
2022-09-12T07:45:58.019Z,17.18
2022-09-12T07:48:24.752Z,17.14
2022-09-12T07:51:02.155Z,17.39
2022-09-12T07:53:32.983Z,17.43
2022-09-12T07:56:00.657Z,17.56
2022-09-12T07:58:27.468Z,17.57
2022-09-12T08:00:54.015Z,17.66
2022-09-12T08:03:20.518Z,17.79
2022-09-12T08:05:47.536Z,18.04
2022-09-12T08:08:14.032Z,18.09
2022-09-12T08:10:40.465Z,18.31
2022-09-12T08:13:10.125Z,18.33
2022-09-12T08:15:37.306Z,18.38
2022-09-12T08:18:03.826Z,18.40
2022-09-12T08:20:31.073Z,18.56
2022-09-12T08:22:57.688Z,18.47
2022-09-12T08:25:24.182Z,18.82
2022-09-12T08:27:50.794Z,19.24
2022-09-12T08:30:17.311Z,19.41
2022-09-12T08:32:44.414Z,19.42
2022-09-12T08:35:11.230Z,19.54
2022-09-12T08:37:37.891Z,19.50
2022-09-12T08:40:07.198Z,19.62
2022-09-12T08:42:54.405Z,19.73
2022-09-12T08:45:30.359Z,19.92
2022-09-12T08:47:57.533Z,20.04
2022-09-12T08:50:24.058Z,20.16
2022-09-12T08:52:58.888Z,20.30
2022-09-12T08:55:33.561Z,20.41
2022-09-12T08:58:02.681Z,20.32
2022-09-12T09:00:38.518Z,20.52
2022-09-12T09:03:15.333Z,20.64
2022-09-12T09:05:51.313Z,20.73
2022-09-12T09:08:17.769Z,20.85
2022-09-12T09:10:59.750Z,20.90
2022-09-12T09:13:54.016Z,20.81
2022-09-12T09:16:27.725Z,20.91
2022-09-12T09:18:57.245Z,21.00
2022-09-12T09:21:31.691Z,20.86
2022-09-12T09:24:05.963Z,20.94
2022-09-12T09:26:53.461Z,21.13
2022-09-12T09:29:26.960Z,21.30
2022-09-12T09:31:57.664Z,21.34
2022-09-12T09:34:31.593Z,21.56
2022-09-12T09:37:20.973Z,21.62
2022-09-12T09:40:28.923Z,21.70
2022-09-12T09:43:04.903Z,21.95
2022-09-12T09:45:31.893Z,22.10
2022-09-12T09:48:17.524Z,22.02
2022-09-12T09:50:46.143Z,22.17
2022-09-12T09:53:27.129Z,22.23
2022-09-12T09:55:56.787Z,22.33
2022-09-12T09:58:34.333Z,22.44
2022-09-12T10:01:06.432Z,22.39
2022-09-12T10:03:37.165Z,22.51
2022-09-12T10:06:22.569Z,22.71
2022-09-12T10:08:50.222Z,22.92
2022-09-12T10:11:16.745Z,22.99
2022-09-12T10:13:57.253Z,22.84
2022-09-12T10:16:29.966Z,22.95
2022-09-12T10:18:58.751Z,23.08
2022-09-12T10:22:01.002Z,23.23
2022-09-12T10:24:35.075Z,23.23
2022-09-12T10:27:15.581Z,23.34
2022-09-12T10:29:45.802Z,23.52
2022-09-12T10:32:17.023Z,23.55
2022-09-12T10:34:45.544Z,23.29
2022-09-12T10:37:40.186Z,23.44
2022-09-12T10:40:21.007Z,23.70
2022-09-12T10:42:53.201Z,23.69
2022-09-12T10:45:26.669Z,23.79
2022-09-12T10:47:55.572Z,23.86
2022-09-12T10:50:31.058Z,23.87
2022-09-12T10:53:14.856Z,23.96
2022-09-12T10:55:51.081Z,24.05
2022-09-12T10:59:05.267Z,24.08
2022-09-12T11:02:00.580Z,24.27
2022-09-12T11:04:30.277Z,24.36
2022-09-12T11:07:14.959Z,24.38
2022-09-12T11:10:04.550Z,24.53
2022-09-12T11:12:58.486Z,24.61
2022-09-12T11:15:43.265Z,24.77
2022-09-12T11:18:33.245Z,24.84
2022-09-12T11:21:14.820Z,24.96
2022-09-12T11:24:12.521Z,25.07
2022-09-12T11:27:14.647Z,25.14
2022-09-12T11:29:49.888Z,25.28
2022-09-12T11:32:19.534Z,25.35
2022-09-12T11:35:17.160Z,25.56
2022-09-12T11:38:21.445Z,25.56
2022-09-12T11:40:55.878Z,25.52
2022-09-12T11:43:38.669Z,25.63
2022-09-12T11:46:21.311Z,25.61
2022-09-12T11:49:09.360Z,25.69
2022-09-12T11:51:57.801Z,25.52
2022-09-12T11:54:44.894Z,25.68
2022-09-12T11:57:21.702Z,25.77
2022-09-12T11:59:59.295Z,25.71
2022-09-12T12:02:31.118Z,25.71
2022-09-12T12:05:20.500Z,25.78
2022-09-12T12:07:56.103Z,25.64
2022-09-12T12:10:51.568Z,25.79
2022-09-12T12:13:21.420Z,25.80
2022-09-12T12:15:55.149Z,25.96
2022-09-12T12:18:27.948Z,25.93
2022-09-12T12:20:56.709Z,25.96
2022-09-12T12:23:32.215Z,26.13
2022-09-12T12:26:04.617Z,26.05
2022-09-12T12:28:43.167Z,26.01
2022-09-12T12:31:10.756Z,26.17
2022-09-12T12:33:37.425Z,26.20
2022-09-12T12:36:28.441Z,26.02
2022-09-12T12:38:55.162Z,26.01
2022-09-12T12:41:21.691Z,26.11
2022-09-12T12:43:53.453Z,26.29
2022-09-12T12:46:26.692Z,26.35
2022-09-12T12:49:23.050Z,26.41
2022-09-12T12:52:01.565Z,26.30
2022-09-12T12:54:48.241Z,26.23
2022-09-12T12:57:25.134Z,26.25
2022-09-12T12:59:56.730Z,26.52
2022-09-12T13:02:31.808Z,26.69
2022-09-12T13:05:02.131Z,26.96
2022-09-12T13:07:31.239Z,27.02
2022-09-12T13:09:59.463Z,27.00
2022-09-12T13:12:34.117Z,26.85
2022-09-12T13:15:03.426Z,26.79
2022-09-12T13:17:32.613Z,26.96
2022-09-12T13:20:28.298Z,27.02
2022-09-12T13:22:56.005Z,26.98
2022-09-12T13:25:27.987Z,27.04
2022-09-12T13:28:01.345Z,27.09
2022-09-12T13:30:31.591Z,27.12
2022-09-12T13:32:58.775Z,27.06
2022-09-12T13:35:35.830Z,27.15
2022-09-12T13:38:16.692Z,27.11
2022-09-12T13:41:07.709Z,27.27
2022-09-12T13:43:41.518Z,27.32
2022-09-12T13:46:10.969Z,27.36
2022-09-12T13:48:39.733Z,27.50
2022-09-12T13:51:06.969Z,27.65
2022-09-12T13:53:44.623Z,27.72
2022-09-12T13:56:19.286Z,27.71
2022-09-12T13:59:13.390Z,27.72
2022-09-12T14:01:44.292Z,27.52
2022-09-12T14:04:37.956Z,27.72
2022-09-12T14:07:23.534Z,27.78
2022-09-12T14:09:58.822Z,27.73
2022-09-12T14:12:30.238Z,27.74
2022-09-12T14:14:57.352Z,27.85
2022-09-12T14:17:30.027Z,27.98
2022-09-12T14:20:04.536Z,28.05
2022-09-12T14:22:32.379Z,27.99
2022-09-12T14:24:59.565Z,28.14
2022-09-12T14:27:29.101Z,28.19
2022-09-12T14:30:23.872Z,28.37
2022-09-12T14:33:12.104Z,28.34
2022-09-12T14:35:43.662Z,28.39
2022-09-12T14:38:16.001Z,28.29
2022-09-12T14:41:05.768Z,28.20
2022-09-12T14:43:34.853Z,28.05
2022-09-12T14:46:04.013Z,27.90
2022-09-12T14:48:33.112Z,27.98
2022-09-12T14:50:59.919Z,27.84
2022-09-12T14:53:32.576Z,27.73
2022-09-12T14:56:13.289Z,27.53
2022-09-12T14:58:40.938Z,27.46
2022-09-12T15:01:07.829Z,27.50
2022-09-12T15:03:49.333Z,27.49
2022-09-12T15:06:38.072Z,27.52
2022-09-12T15:09:08.755Z,27.52
2022-09-12T15:11:35.474Z,27.52
2022-09-12T15:14:15.191Z,27.54
2022-09-12T15:16:42.592Z,27.48
2022-09-12T15:19:09.687Z,27.57
2022-09-12T15:21:36.236Z,27.58
2022-09-12T15:24:02.926Z,27.77
2022-09-12T15:26:31.585Z,27.71
2022-09-12T15:28:58.448Z,27.57
2022-09-12T15:31:32.186Z,27.62
2022-09-12T15:34:02.435Z,27.63
2022-09-12T15:36:29.605Z,27.83
2022-09-12T15:38:56.696Z,27.80
2022-09-12T15:41:30.111Z,28.00
2022-09-12T15:43:56.782Z,28.23
2022-09-12T15:46:23.693Z,28.22
2022-09-12T15:48:50.471Z,28.39
2022-09-12T15:51:21.731Z,28.52
2022-09-12T15:53:50.216Z,28.80
2022-09-12T15:56:18.764Z,28.83
2022-09-12T15:58:57.747Z,29.20
2022-09-12T16:01:25.920Z,29.31
2022-09-12T16:03:52.465Z,29.38
2022-09-12T16:06:18.894Z,29.51
2022-09-12T16:08:45.621Z,29.50
2022-09-12T16:11:18.766Z,29.51
2022-09-12T16:13:45.368Z,29.43
2022-09-12T16:16:11.997Z,29.69
2022-09-12T16:18:41.954Z,29.81
2022-09-12T16:21:14.071Z,30.04
2022-09-12T16:23:45.804Z,29.49
2022-09-12T16:26:12.345Z,28.77
2022-09-12T16:28:38.969Z,28.51
2022-09-12T16:31:08.037Z,28.63
2022-09-12T16:33:38.192Z,28.83
2022-09-12T16:36:10.750Z,28.52
2022-09-12T16:38:49.491Z,29.07
2022-09-12T16:41:17.901Z,29.24
2022-09-12T16:43:45.498Z,28.83
2022-09-12T16:46:24.356Z,28.77
2022-09-12T16:48:53.931Z,28.57
2022-09-12T16:51:26.282Z,27.94
2022-09-12T16:53:56.050Z,27.47
2022-09-12T16:56:23.425Z,27.07
2022-09-12T16:58:50.765Z,26.82
2022-09-12T17:01:23.362Z,26.50
2022-09-12T17:04:01.604Z,26.31
2022-09-12T17:06:28.581Z,26.08
2022-09-12T17:08:58.362Z,25.97
2022-09-12T17:11:29.823Z,25.77
2022-09-12T17:14:04.958Z,25.71
2022-09-12T17:16:35.477Z,25.52
2022-09-12T17:19:02.392Z,25.45
2022-09-12T17:21:29.087Z,25.47
2022-09-12T17:23:55.926Z,25.35
2022-09-12T17:26:22.916Z,25.35
2022-09-12T17:28:49.832Z,25.22
2022-09-12T17:31:17.457Z,25.20
2022-09-12T17:33:44.409Z,25.09
2022-09-12T17:36:15.205Z,24.99
2022-09-12T17:38:43.702Z,24.89
2022-09-12T17:41:18.085Z,24.90
2022-09-12T17:43:47.507Z,24.75
2022-09-12T17:46:14.294Z,24.77
2022-09-12T17:48:45.086Z,24.82
2022-09-12T17:51:14.044Z,24.69
2022-09-12T17:53:41.564Z,24.71
2022-09-12T17:56:09.105Z,24.57
2022-09-12T17:58:36.476Z,24.43
2022-09-12T18:01:32.561Z,24.39
2022-09-12T18:04:00.801Z,24.34
2022-09-12T18:06:32.314Z,24.35
2022-09-12T18:09:08.152Z,24.28
2022-09-12T18:11:35.552Z,24.19
2022-09-12T18:14:02.657Z,24.20
2022-09-12T18:16:31.472Z,24.22
2022-09-12T18:19:04.441Z,24.07
2022-09-12T18:21:31.029Z,23.96
2022-09-12T18:24:01.749Z,23.91
2022-09-12T18:26:29.385Z,23.93
2022-09-12T18:28:56.866Z,23.89
2022-09-12T18:31:26.260Z,23.76
2022-09-12T18:33:53.028Z,23.60
2022-09-12T18:36:20.225Z,23.57
2022-09-12T18:38:48.128Z,23.48
2022-09-12T18:41:22.826Z,23.43
2022-09-12T18:43:57.665Z,23.32
2022-09-12T18:46:28.426Z,23.23
2022-09-12T18:48:57.933Z,23.28
2022-09-12T18:51:33.992Z,23.25
2022-09-12T18:54:03.389Z,23.21
2022-09-12T18:56:34.838Z,23.23
2022-09-12T18:59:02.702Z,23.21
2022-09-12T19:01:32.059Z,23.18
2022-09-12T19:04:00.892Z,22.98
2022-09-12T19:06:30.167Z,22.74
2022-09-12T19:08:57.707Z,22.88
2022-09-12T19:11:31.960Z,22.79
2022-09-12T19:13:59.186Z,22.74
2022-09-12T19:16:30.885Z,22.60
2022-09-12T19:18:58.540Z,22.43
2022-09-12T19:21:28.818Z,22.44
2022-09-12T19:24:05.729Z,22.41
2022-09-12T19:26:33.546Z,22.20
2022-09-12T19:29:02.798Z,22.23
2022-09-12T19:31:30.685Z,22.19
2022-09-12T19:34:04.687Z,22.11
2022-09-12T19:36:47.771Z,22.18
2022-09-12T19:39:19.517Z,22.22
2022-09-12T19:41:46.451Z,22.18
2022-09-12T19:44:13.353Z,22.20
2022-09-12T19:46:40.385Z,22.16
2022-09-12T19:49:07.061Z,22.10
2022-09-12T19:51:33.581Z,22.04
2022-09-12T19:54:00.154Z,22.11
2022-09-12T19:56:26.966Z,22.19
2022-09-12T19:58:56.724Z,22.21
2022-09-12T20:01:29.600Z,22.21
2022-09-12T20:03:57.767Z,22.18
2022-09-12T20:06:24.898Z,22.25
2022-09-12T20:08:51.588Z,22.30
2022-09-12T20:11:20.010Z,22.26
2022-09-12T20:13:46.819Z,22.03
2022-09-12T20:16:21.072Z,22.07
2022-09-12T20:18:49.487Z,22.10
2022-09-12T20:21:20.150Z,22.10
2022-09-12T20:23:47.126Z,21.98
2022-09-12T20:26:14.001Z,21.99
2022-09-12T20:28:41.661Z,21.73
2022-09-12T20:31:13.878Z,21.74
2022-09-12T20:33:41.440Z,21.73
2022-09-12T20:36:10.788Z,21.64
2022-09-12T20:38:38.007Z,21.60
2022-09-12T20:41:06.618Z,21.45
2022-09-12T20:43:33.456Z,21.29
2022-09-12T20:45:59.941Z,21.52
2022-09-12T20:48:26.576Z,21.48
2022-09-12T20:50:53.060Z,21.38
2022-09-12T20:53:19.829Z,21.29
2022-09-12T20:55:51.526Z,21.40
2022-09-12T20:58:19.318Z,21.43
2022-09-12T21:00:46.564Z,21.42
2022-09-12T21:03:14.229Z,21.39
2022-09-12T21:05:42.749Z,21.38
2022-09-12T21:08:16.047Z,21.41
2022-09-12T21:10:44.172Z,21.32
2022-09-12T21:13:11.249Z,21.53
2022-09-12T21:15:38.864Z,21.37
2022-09-12T21:18:05.765Z,21.41
2022-09-12T21:20:32.926Z,21.38
2022-09-12T21:22:59.734Z,21.29
2022-09-12T21:25:26.490Z,21.25
2022-09-12T21:27:53.003Z,21.32
2022-09-12T21:30:19.749Z,21.25
2022-09-12T21:32:46.538Z,21.31
2022-09-12T21:35:13.665Z,21.38
2022-09-12T21:37:40.265Z,21.33
2022-09-12T21:40:07.801Z,21.26
2022-09-12T21:42:34.301Z,21.24
2022-09-12T21:45:00.829Z,21.25
2022-09-12T21:47:27.529Z,21.16
2022-09-12T21:49:55.447Z,20.97
2022-09-12T21:52:23.575Z,21.04
2022-09-12T21:54:50.177Z,21.05
2022-09-12T21:57:16.786Z,21.10
2022-09-12T21:59:43.392Z,21.17
2022-09-12T22:02:10.316Z,21.21
2022-09-12T22:04:36.842Z,21.21
2022-09-12T22:07:03.369Z,21.26
2022-09-12T22:09:30.358Z,21.29
2022-09-12T22:11:56.798Z,21.21
2022-09-12T22:14:23.635Z,21.26
2022-09-12T22:16:50.294Z,21.04
2022-09-12T22:19:16.824Z,21.08
2022-09-12T22:22:03.462Z,20.94
2022-09-12T22:24:30.289Z,21.13
2022-09-12T22:26:59.128Z,21.16
2022-09-12T22:29:26.998Z,21.08
2022-09-12T22:31:53.779Z,21.04
2022-09-12T22:34:20.318Z,20.88
2022-09-12T22:36:48.518Z,20.88
2022-09-12T22:39:15.055Z,20.87
2022-09-12T22:41:41.515Z,20.93
2022-09-12T22:44:08.942Z,20.96
2022-09-12T22:46:35.538Z,20.99
2022-09-12T22:49:02.011Z,20.96
2022-09-12T22:51:28.628Z,20.97
2022-09-12T22:53:56.497Z,20.93
2022-09-12T22:56:23.298Z,20.98
2022-09-12T22:58:50.091Z,20.90
2022-09-12T23:01:16.826Z,20.83
2022-09-12T23:03:43.720Z,20.84
2022-09-12T23:06:11.423Z,20.63
2022-09-12T23:08:39.573Z,20.86
2022-09-12T23:11:12.929Z,20.64
2022-09-12T23:13:42.400Z,20.83
2022-09-12T23:16:14.831Z,20.83
2022-09-12T23:18:41.302Z,20.73
2022-09-12T23:21:10.294Z,20.83
2022-09-12T23:23:37.309Z,20.80
2022-09-12T23:26:12.578Z,20.83
2022-09-12T23:28:41.148Z,20.79
2022-09-12T23:31:09.797Z,20.81
2022-09-12T23:33:36.419Z,20.72
2022-09-12T23:36:06.824Z,20.56
2022-09-12T23:38:34.114Z,20.62
2022-09-12T23:41:01.603Z,20.57
2022-09-12T23:43:29.930Z,20.52
2022-09-12T23:45:57.055Z,20.49
2022-09-12T23:48:23.852Z,20.47
2022-09-12T23:50:50.459Z,20.36
2022-09-12T23:53:17.701Z,20.40
2022-09-12T23:55:45.056Z,20.38
2022-09-12T23:58:11.782Z,20.25
